Time;durP1;ratioP1;P1;durP2;ratioP2;P2;SDS_P1;SDS_P2;PMS_P1;PMS_P2;Temp;Humidity;BMP_temperature;BMP_pressure;BME280_temperature;BME280_humidity;BME280_pressure;Samples;Min_cycle;Max_cycle;Signal;HPM_P1;HPM_P2
2022/05/27 00:01:28;;;;;;;14.90;8.95;;;15.60;99.90;;;;;;5073029;28;20331;-77
2022/05/27 00:04:02;;;;;;;13.48;7.65;;;15.70;99.90;;;;;;5073739;28;20201;-77
2022/05/27 00:06:33;;;;;;;11.35;7.25;;;15.80;99.90;;;;;;5072298;28;20278;-77
2022/05/27 00:09:04;;;;;;;15.23;7.82;;;15.90;99.90;;;;;;5072467;28;20197;-77
2022/05/27 00:11:34;;;;;;;11.95;7.13;;;16.00;99.90;;;;;;5073059;28;20193;-77
2022/05/27 00:14:05;;;;;;;10.82;6.95;;;16.10;99.90;;;;;;5073735;28;20238;-77
2022/05/27 00:16:36;;;;;;;13.90;6.82;;;16.20;99.90;;;;;;5076232;28;20197;-76
2022/05/27 00:19:08;;;;;;;11.77;6.32;;;16.30;99.90;;;;;;5072341;28;20680;-76
2022/05/27 00:21:39;;;;;;;8.73;5.85;;;16.50;99.90;;;;;;5073398;28;20200;-77
2022/05/27 00:24:10;;;;;;;9.38;5.43;;;16.50;99.90;;;;;;5072218;28;20200;-77
2022/05/27 00:26:40;;;;;;;9.43;6.05;;;16.60;99.90;;;;;;5071819;28;20270;-77
2022/05/27 00:29:11;;;;;;;9.13;5.28;;;16.70;99.90;;;;;;5073887;28;20262;-77
2022/05/27 00:31:41;;;;;;;10.88;5.88;;;16.80;99.90;;;;;;5072132;28;20197;-77
2022/05/27 00:34:14;;;;;;;10.05;6.43;;;17.00;99.90;;;;;;5072669;28;20189;-76
2022/05/27 00:36:45;;;;;;;34.63;22.48;;;17.10;99.90;;;;;;5072720;28;20208;-77
2022/05/27 00:39:15;;;;;;;15.93;8.38;;;17.20;99.90;;;;;;5069610;28;20189;-76
2022/05/27 00:41:46;;;;;;;23.05;13.55;;;17.30;99.90;;;;;;5071914;28;20232;-76
2022/05/27 00:44:17;;;;;;;38.47;26.67;;;17.30;99.90;;;;;;5074818;28;20192;-76
2022/05/27 00:46:49;;;;;;;27.33;18.73;;;17.40;99.90;;;;;;5073347;28;20196;-75
2022/05/27 00:49:26;;;;;;;15.68;10.32;;;17.50;99.90;;;;;;5070822;28;20246;-77
2022/05/27 00:52:03;;;;;;;9.50;5.97;;;17.50;99.90;;;;;;5070401;28;20230;-77
2022/05/27 00:54:36;;;;;;;9.95;7.20;;;17.60;99.90;;;;;;5069214;28;20246;-77
2022/05/27 00:57:10;;;;;;;12.55;7.68;;;17.60;99.90;;;;;;5072106;28;20570;-77
2022/05/27 00:59:45;;;;;;;9.65;6.20;;;17.60;99.90;;;;;;5070194;28;20208;-77
2022/05/27 01:02:17;;;;;;;11.18;5.30;;;17.80;99.90;;;;;;5072851;28;20570;-77
2022/05/27 01:04:52;;;;;;;7.07;4.93;;;17.90;99.90;;;;;;5073101;28;20181;-77
2022/05/27 01:07:23;;;;;;;8.32;5.32;;;17.90;99.90;;;;;;5075059;28;20192;-77
2022/05/27 01:09:54;;;;;;;10.63;4.78;;;18.00;99.90;;;;;;5073582;28;20548;-77
2022/05/27 01:12:46;;;;;;;8.90;5.03;;;18.20;99.90;;;;;;5072313;28;20216;-77
2022/05/27 01:15:26;;;;;;;8.75;5.25;;;18.30;99.90;;;;;;5069022;28;20197;-76
2022/05/27 01:18:10;;;;;;;7.60;4.88;;;18.40;99.90;;;;;;5075215;28;20691;-77
2022/05/27 01:20:50;;;;;;;7.78;4.43;;;18.50;99.90;;;;;;5068250;28;20196;-77
2022/05/27 01:23:55;;;;;;;10.15;5.38;;;18.60;99.90;;;;;;5067534;28;20216;-77
2022/05/27 01:26:53;;;;;;;11.02;5.53;;;18.60;99.90;;;;;;5072937;28;20667;-77
2022/05/27 01:29:57;;;;;;;10.32;5.40;;;18.70;99.90;;;;;;5065754;28;20189;-77
2022/05/27 01:32:36;;;;;;;9.02;5.70;;;18.80;99.90;;;;;;5064013;28;20197;-77
2022/05/27 01:35:22;;;;;;;10.15;5.45;;;18.80;99.90;;;;;;5071883;28;20193;-77
2022/05/27 01:37:58;;;;;;;10.55;5.15;;;18.90;99.90;;;;;;5072594;28;20199;-77
2022/05/27 01:40:34;;;;;;;10.57;4.95;;;19.00;99.90;;;;;;5072619;28;20559;-77
2022/05/27 01:43:07;;;;;;;12.85;6.10;;;19.10;99.90;;;;;;5072287;28;20274;-76
2022/05/27 01:45:44;;;;;;;8.80;5.50;;;19.20;99.90;;;;;;5072252;28;20272;-76
2022/05/27 01:48:22;;;;;;;8.27;4.80;;;19.20;99.90;;;;;;5072455;28;20685;-76
2022/05/27 01:51:00;;;;;;;13.00;4.72;;;19.30;99.90;;;;;;5072497;28;20211;-76
2022/05/27 01:53:36;;;;;;;7.20;4.60;;;19.30;99.90;;;;;;5064717;28;20204;-76
2022/05/27 01:56:14;;;;;;;8.25;3.90;;;19.40;99.90;;;;;;5072569;28;20246;-76
2022/05/27 01:58:49;;;;;;;10.30;5.13;;;19.40;99.90;;;;;;5071539;28;20189;-76
2022/05/27 02:01:23;;;;;;;10.85;4.60;;;19.50;99.90;;;;;;5074413;28;20640;-77
2022/05/27 02:03:58;;;;;;;10.40;4.32;;;19.60;99.90;;;;;;5076111;28;20232;-77
2022/05/27 02:06:34;;;;;;;7.50;4.40;;;19.60;99.90;;;;;;5071991;28;20641;-76
2022/05/27 02:09:09;;;;;;;7.43;3.83;;;19.70;99.90;;;;;;5075774;28;20196;-76
2022/05/27 02:11:41;;;;;;;5.53;3.35;;;19.70;99.90;;;;;;5075791;28;20192;-77
2022/05/27 02:14:19;;;;;;;7.70;3.70;;;19.80;99.90;;;;;;5076155;28;20264;-75
2022/05/27 02:16:54;;;;;;;7.63;3.92;;;19.80;99.90;;;;;;5076660;28;20192;-76
2022/05/27 02:19:32;;;;;;;8.55;5.30;;;19.90;99.90;;;;;;5075256;28;20199;-77
2022/05/27 02:22:06;;;;;;;9.63;4.63;;;19.80;99.90;;;;;;5075622;28;20567;-76
2022/05/27 02:24:41;;;;;;;5.72;3.50;;;19.90;99.90;;;;;;5075820;28;20212;-77
2022/05/27 02:27:15;;;;;;;4.75;3.65;;;19.90;99.90;;;;;;5077438;28;20200;-77
2022/05/27 02:29:50;;;;;;;5.22;3.28;;;20.00;99.90;;;;;;5075983;28;20238;-77
2022/05/27 02:32:24;;;;;;;5.47;3.00;;;20.00;99.90;;;;;;5073775;28;20191;-77
2022/05/27 02:35:11;;;;;;;6.85;3.05;;;20.00;99.90;;;;;;5078543;28;20196;-76
2022/05/27 02:37:44;;;;;;;8.05;4.50;;;20.10;99.90;;;;;;5076541;28;20200;-77
2022/05/27 02:40:18;;;;;;;5.45;3.33;;;20.10;99.90;;;;;;5076357;28;20651;-77
2022/05/27 02:43:07;;;;;;;5.95;3.00;;;20.10;99.90;;;;;;5074484;28;20213;-77
2022/05/27 02:45:46;;;;;;;9.32;4.63;;;20.10;99.90;;;;;;5075863;28;20666;-77
2022/05/27 02:48:23;;;;;;;10.38;4.90;;;20.20;99.90;;;;;;5075977;28;20196;-78
2022/05/27 02:51:01;;;;;;;4.35;2.90;;;20.20;99.90;;;;;;5068650;28;20261;-78
2022/05/27 02:53:35;;;;;;;4.85;2.80;;;20.30;99.90;;;;;;5074808;28;20206;-77
2022/05/27 02:56:13;;;;;;;4.97;2.70;;;20.30;99.90;;;;;;5074018;28;20200;-76
2022/05/27 02:58:45;;;;;;;6.03;2.67;;;20.30;99.90;;;;;;5067145;28;20262;-77
2022/05/27 03:01:16;;;;;;;4.82;2.90;;;20.30;99.90;;;;;;5075274;28;20193;-77
2022/05/27 03:03:47;;;;;;;5.40;2.85;;;20.30;99.90;;;;;;5073568;28;20597;-77
2022/05/27 03:06:43;;;;;;;5.63;2.63;;;20.40;99.90;;;;;;5075651;28;20196;-77
2022/05/27 03:09:19;;;;;;;4.30;2.53;;;20.40;99.90;;;;;;5076684;28;20207;-77
2022/05/27 03:12:02;;;;;;;4.85;2.42;;;20.40;99.90;;;;;;5075705;28;20193;-77
2022/05/27 03:14:55;;;;;;;4.00;2.72;;;20.50;99.90;;;;;;5073480;28;20224;-78
2022/05/27 03:17:42;;;;;;;6.78;3.03;;;20.50;99.90;;;;;;5074550;28;20704;-77
2022/05/27 03:20:23;;;;;;;4.38;2.58;;;20.50;99.90;;;;;;5071820;28;20682;-77
2022/05/27 03:23:08;;;;;;;6.43;2.67;;;20.50;99.90;;;;;;5067988;28;20197;-77
2022/05/27 03:25:56;;;;;;;3.60;2.53;;;20.50;99.90;;;;;;5075620;28;20185;-77
2022/05/27 03:28:31;;;;;;;5.88;2.97;;;20.50;99.90;;;;;;5077627;28;20197;-77
2022/05/27 03:31:08;;;;;;;5.80;2.80;;;20.50;99.90;;;;;;5074857;28;20226;-77
2022/05/27 03:33:48;;;;;;;4.57;2.60;;;20.50;99.90;;;;;;5074822;28;20192;-77
2022/05/27 03:36:22;;;;;;;5.43;2.60;;;20.50;99.90;;;;;;5074920;28;20215;-77
2022/05/27 03:39:01;;;;;;;3.92;2.30;;;20.50;99.90;;;;;;5068451;28;20679;-78
2022/05/27 03:41:36;;;;;;;4.28;2.70;;;20.50;99.90;;;;;;5074173;28;20284;-77
2022/05/27 03:44:07;;;;;;;3.83;2.17;;;20.60;99.90;;;;;;5073357;28;20281;-78
2022/05/27 03:46:39;;;;;;;5.95;2.40;;;20.60;99.90;;;;;;5074611;28;20199;-78
2022/05/27 03:49:10;;;;;;;5.18;2.10;;;20.70;99.90;;;;;;5074229;28;20239;-77
2022/05/27 03:51:47;;;;;;;3.15;1.85;;;20.70;99.90;;;;;;5077091;28;20201;-78
2022/05/27 03:54:21;;;;;;;7.82;2.35;;;20.70;99.90;;;;;;5086278;28;20207;-78
2022/05/27 03:56:51;;;;;;;5.32;2.10;;;20.70;99.90;;;;;;5074954;28;20220;-78
2022/05/27 03:59:23;;;;;;;3.67;1.80;;;20.80;99.90;;;;;;5074984;28;20641;-78
2022/05/27 04:01:55;;;;;;;5.50;2.08;;;20.70;99.90;;;;;;5076232;28;20193;-78
2022/05/27 04:04:28;;;;;;;5.90;2.00;;;20.70;99.90;;;;;;5074528;28;20228;-78
2022/05/27 04:07:00;;;;;;;4.78;2.33;;;20.80;99.90;;;;;;5075281;28;20238;-78
2022/05/27 04:09:36;;;;;;;4.97;2.35;;;20.80;99.90;;;;;;5075179;28;20188;-78
2022/05/27 04:12:08;;;;;;;4.65;2.10;;;20.80;99.90;;;;;;5072398;28;20192;-78
2022/05/27 04:14:40;;;;;;;5.07;2.00;;;20.90;99.90;;;;;;5074543;28;20196;-78
2022/05/27 04:19:58;;;;;;;7.60;2.30;;;20.90;99.90;;;;;;5073566;28;20211;-77
2022/05/27 04:22:31;;;;;;;4.30;2.00;;;21.00;99.90;;;;;;5071881;28;20206;-78
2022/05/27 04:25:03;;;;;;;7.30;2.22;;;21.00;99.90;;;;;;5071993;28;20217;-78
2022/05/27 04:27:35;;;;;;;6.40;1.70;;;21.00;99.90;;;;;;5072541;28;20734;-77
2022/05/27 04:30:09;;;;;;;9.52;1.70;;;21.00;99.90;;;;;;5066602;28;20548;-77
2022/05/27 04:32:41;;;;;;;3.17;1.05;;;21.00;99.90;;;;;;5072813;28;20551;-78
2022/05/27 04:35:14;;;;;;;6.63;1.42;;;21.00;99.90;;;;;;5066534;28;20193;-78
2022/05/27 04:37:45;;;;;;;4.45;1.20;;;20.90;99.90;;;;;;5073419;28;20193;-77
2022/05/27 04:40:19;;;;;;;4.63;1.25;;;20.90;99.90;;;;;;5073455;28;20193;-78
2022/05/27 04:42:50;;;;;;;3.75;1.52;;;20.80;99.90;;;;;;5072681;28;20192;-77
2022/05/27 04:45:22;;;;;;;4.03;1.27;;;20.70;99.90;;;;;;5072037;28;20217;-77
2022/05/27 04:47:54;;;;;;;4.32;1.50;;;20.80;99.90;;;;;;5073517;28;20240;-77
2022/05/27 04:50:25;;;;;;;3.72;1.40;;;20.70;99.90;;;;;;5072230;28;20652;-78
2022/05/27 04:52:56;;;;;;;5.50;1.45;;;20.70;99.90;;;;;;5072688;28;20188;-77
2022/05/27 04:55:30;;;;;;;6.55;1.40;;;20.70;99.90;;;;;;5071975;28;20557;-77
2022/05/27 04:58:01;;;;;;;4.82;1.10;;;20.80;99.90;;;;;;5067289;28;20640;-78
2022/05/27 05:00:35;;;;;;;2.15;1.08;;;20.70;99.90;;;;;;5072973;28;20193;-78
2022/05/27 05:03:07;;;;;;;3.90;1.00;;;20.80;99.90;;;;;;5074154;28;20228;-77
2022/05/27 05:05:39;;;;;;;2.97;1.00;;;20.80;99.90;;;;;;5073128;28;20198;-77
2022/05/27 05:08:11;;;;;;;4.00;1.40;;;20.80;99.90;;;;;;5070746;28;20193;-77
2022/05/27 05:10:44;;;;;;;8.43;1.50;;;20.80;99.90;;;;;;5072028;28;20242;-77
2022/05/27 05:13:15;;;;;;;2.80;1.02;;;20.70;99.90;;;;;;5067679;28;20189;-77
2022/05/27 05:15:46;;;;;;;4.22;1.52;;;20.70;99.90;;;;;;5069394;28;20222;-77
2022/05/27 05:18:16;;;;;;;2.53;1.00;;;20.70;99.90;;;;;;5071109;28;20232;-77
2022/05/27 05:20:47;;;;;;;3.50;1.20;;;20.70;99.90;;;;;;5073663;28;20200;-77
2022/05/27 05:23:18;;;;;;;2.28;0.90;;;20.80;99.90;;;;;;5073570;28;20193;-77
2022/05/27 05:25:50;;;;;;;2.63;0.93;;;20.80;99.90;;;;;;5073379;28;20189;-77
2022/05/27 05:28:22;;;;;;;4.95;1.08;;;20.80;99.90;;;;;;5073038;28;20214;-78
2022/05/27 05:30:52;;;;;;;5.05;1.10;;;20.70;99.90;;;;;;5072556;28;20587;-77
2022/05/27 05:33:23;;;;;;;3.63;0.80;;;20.70;99.90;;;;;;5072684;28;20242;-77
2022/05/27 05:35:54;;;;;;;4.70;1.10;;;20.70;99.90;;;;;;5072000;28;20242;-78
2022/05/27 05:38:26;;;;;;;6.18;0.95;;;20.60;99.90;;;;;;5072662;28;20193;-78
2022/05/27 05:40:58;;;;;;;2.00;0.88;;;20.50;99.90;;;;;;5072783;28;20192;-78
2022/05/27 05:43:29;;;;;;;2.67;0.90;;;20.40;99.90;;;;;;5072314;28;20184;-77
2022/05/27 05:45:59;;;;;;;1.52;0.80;;;20.40;99.90;;;;;;5072409;28;20193;-77
2022/05/27 05:48:30;;;;;;;2.85;0.80;;;20.30;99.90;;;;;;5072631;28;20193;-77
2022/05/27 05:51:01;;;;;;;1.85;0.80;;;20.30;99.90;;;;;;5072635;28;20250;-77
2022/05/27 05:53:32;;;;;;;1.55;0.65;;;20.20;99.90;;;;;;5072888;28;20185;-77
2022/05/27 05:56:05;;;;;;;3.17;0.70;;;20.20;99.90;;;;;;5070097;28;20196;-78
2022/05/27 05:58:35;;;;;;;3.47;1.10;;;20.10;99.90;;;;;;5075718;28;20262;-77
2022/05/27 06:01:06;;;;;;;2.65;0.88;;;20.00;99.90;;;;;;5072584;28;20668;-77
2022/05/27 06:03:37;;;;;;;4.80;0.70;;;20.10;99.90;;;;;;5072928;28;20278;-77
2022/05/27 06:06:07;;;;;;;5.00;1.00;;;20.00;99.90;;;;;;5070592;28;20193;-77
2022/05/27 06:08:38;;;;;;;2.65;0.77;;;20.00;99.90;;;;;;5077564;28;20659;-78
2022/05/27 06:11:12;;;;;;;2.80;0.80;;;19.90;99.90;;;;;;5074267;28;20192;-78
2022/05/27 06:13:42;;;;;;;2.08;0.70;;;19.90;99.90;;;;;;5072142;28;20190;-79
2022/05/27 06:16:13;;;;;;;7.75;0.80;;;19.80;99.90;;;;;;5072302;28;20201;-77
2022/05/27 06:18:45;;;;;;;7.03;1.23;;;19.80;99.90;;;;;;5073197;28;20232;-78
2022/05/27 06:21:16;;;;;;;5.18;1.52;;;19.70;99.90;;;;;;5072393;28;20246;-78
2022/05/27 06:23:46;;;;;;;3.30;1.50;;;19.70;99.90;;;;;;5067178;28;20200;-77
2022/05/27 06:26:19;;;;;;;3.65;1.20;;;19.60;99.90;;;;;;5071813;28;20212;-77
2022/05/27 06:34:28;;;;;;;2.55;0.85;;;19.40;99.90;;;;;;5065635;28;20203;-78
2022/05/27 06:37:01;;;;;;;3.28;0.70;;;19.30;99.90;;;;;;5071001;28;20243;-78
2022/05/27 06:39:34;;;;;;;4.60;0.73;;;19.30;99.90;;;;;;5068881;28;20242;-77
2022/05/27 06:42:07;;;;;;;3.28;0.90;;;19.20;99.90;;;;;;5069803;28;20203;-77
2022/05/27 06:44:39;;;;;;;3.20;0.70;;;19.10;99.90;;;;;;5070789;28;20224;-78
2022/05/27 06:47:11;;;;;;;2.38;0.75;;;19.00;99.90;;;;;;5072253;28;20197;-77
2022/05/27 06:49:44;;;;;;;3.10;0.70;;;18.90;99.90;;;;;;5075193;28;20185;-77
2022/05/27 06:52:17;;;;;;;1.92;1.05;;;18.90;99.90;;;;;;5076083;28;20232;-78
2022/05/27 06:54:48;;;;;;;1.67;0.80;;;18.80;99.90;;;;;;5071667;28;20555;-77
2022/05/27 06:57:23;;;;;;;4.30;1.00;;;18.80;99.90;;;;;;5075128;28;20196;-79
2022/05/27 06:59:54;;;;;;;4.35;1.30;;;18.70;99.90;;;;;;5068653;28;20235;-80
2022/05/27 07:02:24;;;;;;;4.82;0.90;;;18.70;99.90;;;;;;5074151;28;20192;-80
2022/05/27 07:04:55;;;;;;;4.85;1.13;;;18.60;99.90;;;;;;5074118;28;20722;-80
2022/05/27 07:07:31;;;;;;;4.65;1.08;;;18.50;99.90;;;;;;5074566;28;20602;-80
2022/05/27 07:10:01;;;;;;;2.67;1.10;;;18.50;99.90;;;;;;5073876;28;20188;-80
2022/05/27 07:12:34;;;;;;;3.35;1.20;;;18.50;99.90;;;;;;5073404;28;20279;-81
2022/05/27 07:15:04;;;;;;;5.55;1.40;;;18.40;99.90;;;;;;5071567;28;20254;-80
2022/05/27 07:17:35;;;;;;;3.15;1.33;;;18.30;99.90;;;;;;5071043;28;20254;-80
2022/05/27 07:20:06;;;;;;;3.35;1.83;;;18.20;99.90;;;;;;5070090;28;20216;-80
2022/05/27 07:22:37;;;;;;;3.90;2.10;;;18.10;99.90;;;;;;5073793;28;20217;-79
2022/05/27 07:25:09;;;;;;;3.75;1.75;;;18.10;99.90;;;;;;5072344;28;20213;-80
2022/05/27 07:27:41;;;;;;;5.93;1.92;;;18.00;99.90;;;;;;5072397;28;20189;-80
2022/05/27 07:30:15;;;;;;;6.80;1.60;;;18.00;99.90;;;;;;5073575;28;20288;-80
2022/05/27 07:32:47;;;;;;;3.15;1.20;;;18.00;99.90;;;;;;5072857;28;20672;-80
2022/05/27 07:35:19;;;;;;;3.70;1.15;;;18.00;99.90;;;;;;5074023;28;20645;-81
2022/05/27 07:37:50;;;;;;;2.78;1.65;;;17.90;99.90;;;;;;5071435;28;20205;-81
2022/05/27 07:40:21;;;;;;;3.88;1.50;;;17.90;99.90;;;;;;5073782;28;20238;-81
2022/05/27 07:42:53;;;;;;;6.05;1.70;;;17.80;99.90;;;;;;5072650;28;20203;-81
2022/05/27 07:45:27;;;;;;;4.30;1.55;;;17.80;99.90;;;;;;5073993;28;20278;-81
2022/05/27 07:47:58;;;;;;;5.63;1.65;;;17.70;99.90;;;;;;5074552;28;20193;-82
2022/05/27 07:50:28;;;;;;;3.03;1.50;;;17.70;99.90;;;;;;5072774;28;20189;-81
2022/05/27 07:52:59;;;;;;;3.65;1.33;;;17.70;99.90;;;;;;5067829;28;20247;-81
2022/05/27 07:55:30;;;;;;;4.00;1.40;;;17.60;99.90;;;;;;5073966;28;20276;-86
2022/05/27 07:58:03;;;;;;;4.83;1.50;;;17.50;99.90;;;;;;5072576;28;20432;-82
2022/05/27 08:00:37;;;;;;;35.58;23.92;;;17.50;99.90;;;;;;5073961;28;20655;-81
2022/05/27 08:03:08;;;;;;;69.65;38.75;;;17.50;99.90;;;;;;5081152;28;20194;-81
2022/05/27 08:05:39;;;;;;;90.88;56.08;;;17.40;99.90;;;;;;5083189;28;20217;-81
2022/05/27 08:08:10;;;;;;;8.55;4.53;;;17.40;99.90;;;;;;5074161;28;20725;-80
2022/05/27 08:10:41;;;;;;;10.20;6.07;;;17.30;99.90;;;;;;5072914;28;20636;-80
2022/05/27 08:13:14;;;;;;;9.90;1.60;;;17.30;99.90;;;;;;5073954;28;20558;-80
2022/05/27 08:15:44;;;;;;;8.60;2.47;;;17.20;99.90;;;;;;5070105;28;20189;-80
2022/05/27 08:18:15;;;;;;;3.10;1.30;;;17.10;99.90;;;;;;5072694;28;20362;-80
2022/05/27 08:20:46;;;;;;;4.78;2.22;;;17.00;99.90;;;;;;5072336;28;20196;-80
2022/05/27 08:23:17;;;;;;;5.57;1.60;;;17.00;99.90;;;;;;5069673;28;20228;-80
2022/05/27 08:25:50;;;;;;;6.90;2.80;;;16.90;99.90;;;;;;5070622;28;20212;-86
2022/05/27 08:28:24;;;;;;;5.95;1.83;;;16.90;99.90;;;;;;5067587;28;20559;-78
2022/05/27 08:30:58;;;;;;;7.90;2.00;;;16.90;99.90;;;;;;5070026;28;20201;-78
2022/05/27 08:38:00;;;;;;;6.57;1.90;;;16.90;99.90;;;;;;5071942;28;20197;-78
2022/05/27 08:39:13;;;;;;;6.13;2.70;;;16.80;99.90;;;;;;5039398;28;20593;-78
2022/05/27 08:42:00;;;;;;;5.75;2.88;;;16.70;99.90;;;;;;5070679;28;20201;-78
2022/05/27 08:44:48;;;;;;;16.38;7.88;;;16.70;99.90;;;;;;5071649;28;20203;-78
2022/05/27 08:47:25;;;;;;;47.10;27.83;;;16.60;99.90;;;;;;5067872;28;20258;-79
2022/05/27 08:50:08;;;;;;;58.20;30.83;;;16.60;99.90;;;;;;5071162;28;20283;-78
2022/05/27 08:52:46;;;;;;;25.25;14.75;;;16.60;99.90;;;;;;5067700;28;20189;-78
2022/05/27 09:01:11;;;;;;;14.38;7.65;;;16.60;99.90;;;;;;5070414;28;20814;-79
2022/05/27 09:03:48;;;;;;;12.10;4.95;;;16.50;99.90;;;;;;5068907;28;20196;-78
2022/05/27 09:06:20;;;;;;;18.83;8.80;;;16.50;99.90;;;;;;5068200;28;20262;-78
2022/05/27 09:08:50;;;;;;;11.65;5.90;;;16.50;99.90;;;;;;5070317;28;20211;-78
2022/05/27 09:11:30;;;;;;;6.28;3.28;;;16.50;99.90;;;;;;5067321;28;20233;-78
2022/05/27 09:14:10;;;;;;;5.32;2.17;;;16.40;99.90;;;;;;5070758;28;20535;-78
2022/05/27 09:16:52;;;;;;;3.78;1.80;;;16.50;99.90;;;;;;5071254;28;20258;-78
2022/05/27 09:19:29;;;;;;;6.13;2.00;;;16.50;99.90;;;;;;5067879;28;20189;-78
2022/05/27 09:22:08;;;;;;;5.25;2.78;;;16.40;99.90;;;;;;5070274;28;20200;-79
2022/05/27 09:24:47;;;;;;;5.18;2.10;;;16.40;99.90;;;;;;5069605;28;20607;-78
2022/05/27 09:27:23;;;;;;;7.63;2.20;;;16.40;99.90;;;;;;5069890;28;20205;-78
2022/05/27 09:30:02;;;;;;;8.10;2.60;;;16.40;99.90;;;;;;5069730;28;20197;-78
2022/05/27 09:32:43;;;;;;;5.93;2.60;;;16.40;99.90;;;;;;5070736;28;20242;-78
2022/05/27 09:35:16;;;;;;;5.07;2.38;;;16.40;99.90;;;;;;5071934;28;20243;-77
2022/05/27 09:37:51;;;;;;;7.05;2.72;;;16.30;99.90;;;;;;5066032;28;20258;-78
2022/05/27 09:40:29;;;;;;;6.68;2.58;;;16.30;99.90;;;;;;5071594;28;20192;-78
2022/05/27 09:43:06;;;;;;;5.07;2.90;;;16.30;99.90;;;;;;5069895;28;20204;-78
2022/05/27 09:45:36;;;;;;;9.27;3.50;;;16.20;99.90;;;;;;5071379;28;20276;-78
2022/05/27 09:48:11;;;;;;;6.30;2.60;;;16.20;99.90;;;;;;5070246;28;20204;-78
2022/05/27 09:50:43;;;;;;;7.63;2.45;;;16.20;99.90;;;;;;5070904;28;20196;-78
2022/05/27 09:53:18;;;;;;;7.32;2.53;;;16.20;99.90;;;;;;5071015;28;20189;-78
2022/05/27 09:55:54;;;;;;;6.53;2.50;;;16.10;99.90;;;;;;5068850;28;20197;-78
2022/05/27 09:58:29;;;;;;;6.68;2.83;;;16.10;99.90;;;;;;5069726;28;20237;-78
2022/05/27 10:01:00;;;;;;;6.75;2.53;;;16.10;99.90;;;;;;5071154;28;20611;-79
2022/05/27 10:03:36;;;;;;;7.07;2.25;;;16.10;99.90;;;;;;5071486;28;20200;-78
2022/05/27 10:06:10;;;;;;;5.18;2.40;;;16.10;99.90;;;;;;5070485;28;20711;-78
2022/05/27 10:08:53;;;;;;;5.25;2.20;;;16.00;99.90;;;;;;5071090;28;20557;-78
2022/05/27 10:11:26;;;;;;;5.70;2.47;;;16.10;99.90;;;;;;5069244;28;20200;-78
2022/05/27 10:14:12;;;;;;;5.13;2.38;;;16.00;99.90;;;;;;5068921;28;20196;-78
2022/05/27 10:16:44;;;;;;;5.78;2.28;;;16.00;99.90;;;;;;5069208;28;20208;-78
2022/05/27 10:19:24;;;;;;;7.28;2.97;;;16.00;99.90;;;;;;5070301;28;20237;-78
2022/05/27 10:21:58;;;;;;;4.82;3.00;;;15.90;99.90;;;;;;5071907;28;20193;-78
2022/05/27 10:24:31;;;;;;;8.10;3.17;;;15.90;99.90;;;;;;5071880;28;20228;-79
2022/05/27 10:27:08;;;;;;;9.98;3.13;;;15.90;99.90;;;;;;5074657;28;20299;-79
2022/05/27 10:29:52;;;;;;;8.90;3.03;;;15.80;99.90;;;;;;5072750;28;20254;-79
2022/05/27 10:32:33;;;;;;;7.07;2.97;;;15.80;99.90;;;;;;5075655;28;20279;-78
2022/05/27 10:35:08;;;;;;;6.07;3.17;;;15.80;99.90;;;;;;5067226;28;20272;-79
2022/05/27 10:37:50;;;;;;;7.85;2.90;;;15.80;99.90;;;;;;5073232;28;20204;-78
2022/05/27 10:40:35;;;;;;;9.80;3.35;;;15.70;99.90;;;;;;5070991;28;20192;-78
2022/05/27 10:43:21;;;;;;;8.90;2.92;;;15.70;99.90;;;;;;5074967;28;20711;-78
2022/05/27 10:45:55;;;;;;;6.65;3.08;;;15.70;99.90;;;;;;5073268;28;20209;-78
2022/05/27 10:49:05;;;;;;;5.60;2.75;;;15.70;99.90;;;;;;5070239;28;20185;-78
2022/05/27 10:51:50;;;;;;;5.35;2.70;;;15.60;99.90;;;;;;5073965;28;20280;-78
2022/05/27 10:54:42;;;;;;;5.13;2.60;;;15.70;99.90;;;;;;5071326;28;20280;-78
2022/05/27 11:03:33;;;;;;;5.95;2.28;;;15.60;99.90;;;;;;5074579;28;20219;-78
2022/05/27 11:06:21;;;;;;;6.78;2.90;;;15.60;99.90;;;;;;5054513;28;20235;-78
2022/05/27 11:09:06;;;;;;;8.13;3.38;;;15.60;99.90;;;;;;5072952;28;20204;-79
2022/05/27 11:11:44;;;;;;;8.40;2.72;;;15.60;99.90;;;;;;5070307;28;20203;-79
2022/05/27 11:17:25;;;;;;;8.05;3.00;;;15.60;99.90;;;;;;5058495;28;20278;-79
2022/05/27 11:20:24;;;;;;;7.85;3.17;;;15.60;99.90;;;;;;5066443;28;20196;-79
2022/05/27 11:23:03;;;;;;;8.75;3.45;;;15.50;99.90;;;;;;5073455;28;20295;-79
2022/05/27 11:25:46;;;;;;;9.57;3.22;;;15.40;99.90;;;;;;5071878;28;20208;-78
2022/05/27 11:29:04;;;;;;;6.20;2.92;;;15.40;99.90;;;;;;5074048;28;20181;-79
2022/05/27 11:31:45;;;;;;;6.90;3.10;;;15.40;99.90;;;;;;5072435;28;20690;-78
2022/05/27 11:34:27;;;;;;;7.32;3.08;;;15.40;99.90;;;;;;5073484;28;20192;-78
2022/05/27 11:37:20;;;;;;;8.60;3.17;;;15.40;99.90;;;;;;5072636;28;20201;-78
2022/05/27 11:40:07;;;;;;;7.30;3.38;;;15.40;99.90;;;;;;5072031;28;20201;-79
2022/05/27 11:43:11;;;;;;;8.25;3.05;;;15.30;99.90;;;;;;5073220;28;20207;-78
2022/05/27 11:45:47;;;;;;;5.00;2.78;;;15.20;99.90;;;;;;5069154;28;20208;-78
2022/05/27 11:48:25;;;;;;;7.82;2.53;;;15.20;99.90;;;;;;5067060;28;20221;-78
2022/05/27 11:51:14;;;;;;;5.60;2.40;;;15.20;99.90;;;;;;5073101;28;20533;-78
2022/05/27 11:54:11;;;;;;;4.13;2.38;;;15.20;99.90;;;;;;5073564;28;20258;-78
2022/05/27 11:56:54;;;;;;;8.15;2.80;;;15.20;99.90;;;;;;5069380;28;20185;-78
2022/05/27 11:59:31;;;;;;;6.72;2.60;;;15.20;99.90;;;;;;5060662;28;20220;-78
2022/05/27 12:02:08;;;;;;;4.80;2.42;;;15.20;99.90;;;;;;5073893;28;20188;-78
2022/05/27 12:04:45;;;;;;;5.80;2.50;;;15.20;99.90;;;;;;5066921;28;20250;-78
2022/05/27 12:07:24;;;;;;;5.40;2.70;;;15.20;99.90;;;;;;5073103;28;20209;-78
2022/05/27 12:10:01;;;;;;;6.60;2.55;;;15.20;99.90;;;;;;5073930;28;20189;-78
2022/05/27 12:12:34;;;;;;;8.07;2.60;;;15.20;99.90;;;;;;5073926;28;20202;-78
2022/05/27 12:15:09;;;;;;;4.90;2.42;;;15.20;99.90;;;;;;5072426;28;20197;-78
2022/05/27 12:17:42;;;;;;;7.10;2.88;;;15.20;99.90;;;;;;5074332;28;20979;-78
2022/05/27 12:20:16;;;;;;;7.65;2.90;;;15.20;99.90;;;;;;5073611;28;20197;-78
2022/05/27 12:22:51;;;;;;;6.57;3.17;;;15.20;99.90;;;;;;5069215;28;20638;-78
2022/05/27 12:25:25;;;;;;;8.27;3.05;;;15.20;99.90;;;;;;5073278;28;20196;-78
2022/05/27 12:27:56;;;;;;;7.30;2.88;;;15.10;99.90;;;;;;5066173;28;20195;-78
2022/05/27 12:30:33;;;;;;;5.93;2.80;;;15.10;99.90;;;;;;5073285;28;20586;-78
2022/05/27 12:33:04;;;;;;;5.85;2.88;;;15.10;99.90;;;;;;5066054;28;20199;-78
2022/05/27 12:35:57;;;;;;;6.72;3.00;;;15.10;99.90;;;;;;5072600;28;20246;-78
2022/05/27 12:38:29;;;;;;;8.32;2.97;;;15.10;99.90;;;;;;5070030;28;20682;-78
2022/05/27 12:41:03;;;;;;;4.93;2.90;;;15.10;99.90;;;;;;5073657;28;20201;-78
2022/05/27 12:43:36;;;;;;;7.75;3.17;;;15.00;99.90;;;;;;5073084;28;20223;-78
2022/05/27 12:46:34;;;;;;;8.02;3.08;;;15.10;99.90;;;;;;5072516;28;20227;-78
2022/05/27 12:49:28;;;;;;;5.80;2.75;;;15.10;99.90;;;;;;5070096;28;20196;-77
2022/05/27 12:51:59;;;;;;;8.75;2.90;;;15.00;99.90;;;;;;5070837;28;20189;-78
2022/05/27 12:55:01;;;;;;;6.30;2.67;;;15.00;99.90;;;;;;5075478;28;20200;-78
2022/05/27 13:00:58;;;;;;;6.35;2.97;;;15.00;99.90;;;;;;5073158;28;20211;-78
2022/05/27 13:03:51;;;;;;;8.25;3.67;;;15.10;99.90;;;;;;5065671;28;20225;-78
2022/05/27 13:06:45;;;;;;;9.85;3.03;;;15.00;99.90;;;;;;5071856;28;20599;-78
2022/05/27 13:09:47;;;;;;;6.85;3.10;;;15.10;99.90;;;;;;5070428;28;20196;-77
2022/05/27 13:12:52;;;;;;;4.57;2.70;;;15.00;99.90;;;;;;5073435;28;20200;-78
2022/05/27 13:15:33;;;;;;;7.30;2.72;;;14.90;99.90;;;;;;5072457;28;20196;-78
2022/05/27 13:18:15;;;;;;;4.95;2.75;;;15.00;99.90;;;;;;5071284;28;20241;-78
2022/05/27 13:21:03;;;;;;;5.03;2.90;;;15.00;99.90;;;;;;5071845;28;20197;-77
2022/05/27 13:23:52;;;;;;;9.77;3.17;;;14.90;99.90;;;;;;5071113;28;20217;-78
2022/05/27 13:26:35;;;;;;;8.48;3.22;;;14.90;99.90;;;;;;5071218;28;20244;-78
2022/05/27 13:29:19;;;;;;;5.53;3.00;;;14.80;99.90;;;;;;5065930;28;20190;-78
2022/05/27 13:31:57;;;;;;;9.45;3.13;;;14.80;99.90;;;;;;5070687;28;20208;-78
2022/05/27 13:34:37;;;;;;;9.10;3.53;;;14.70;99.90;;;;;;5072293;28;20279;-78
2022/05/27 13:37:18;;;;;;;5.97;3.05;;;14.70;99.90;;;;;;5074065;28;20627;-78
2022/05/27 13:39:55;;;;;;;6.68;3.63;;;14.70;99.90;;;;;;5074997;28;20601;-78
2022/05/27 13:42:32;;;;;;;5.88;3.45;;;14.70;99.90;;;;;;5072613;28;20642;-78
2022/05/27 13:45:10;;;;;;;4.68;2.80;;;14.60;99.90;;;;;;5071651;28;20682;-78
2022/05/27 13:47:45;;;;;;;6.57;3.20;;;14.60;99.90;;;;;;5071815;28;20278;-78
2022/05/27 13:50:32;;;;;;;8.73;3.40;;;14.70;99.90;;;;;;5063838;28;20231;-78
2022/05/27 13:53:20;;;;;;;6.50;3.60;;;14.70;99.90;;;;;;5072797;28;20196;-78
2022/05/27 13:55:53;;;;;;;5.32;3.53;;;14.60;99.90;;;;;;5071130;28;20207;-78
2022/05/27 13:58:27;;;;;;;7.07;3.30;;;14.70;99.90;;;;;;5068486;28;20552;-78
2022/05/27 14:01:03;;;;;;;6.68;3.42;;;14.60;99.90;;;;;;5071216;28;20319;-78
2022/05/27 14:03:40;;;;;;;5.72;3.38;;;14.60;99.90;;;;;;5065989;28;20234;-78